dinsdag 18 februari 2020 | Home | Bestenlijsten | Bestenlijsten NL | Calculators | Nieuws | Records | Uitslagen | Videos | Wedstrijden | VZA Ranglijsten | Weer |
 
Recent nieuws meer nieuws
04-02: Voor de 9e keer Kapellecross
18-01: Nog dieper graven over het meten van afstand met GPS door deelnemers
03-01: Nogmaals over vermeende PR's en onzorgvuldig gemeten afstanden
28-12: Wel of geen PR op Tien Mijl in Barendrecht?
18-12: De hardloopnieuwsresten van 2019
27-11: Concurrentie bij het hardlopen
Wedstrijdagenda meer wedstrijden
za 22-02: Halve Marathon Axel
zo 23-02: 9e Kapellecross Kapelle-Biezelinge
zo 23-02: Bosbokkentrail Westenschouwen
zo 23-02: 3e Natuurloop Cadzand-Bad
za 29-02: Scheldeloop Terneuzen
za 29-02: 31e Kustcross Vlissingen
za 07-03: Krokusloop Hulst
za 07-03: 53e Massaloop Oostkapelle
zo 08-03: 45e CPC Loop Den Haag
zo 08-03: 4e Natuurloop Cadzand-Bad
za 14-03: 48e Pannekoekloop Westenschouwen
zo 15-03: 32e Parelloop Brunssum
za 21-03: Corn Boys Loop Sas van Gent
za 21-03: 9e Ronde van BRU Bruinisse
zo 22-03: 60 km van Walcheren Vlissingen
Recente uitslagen
  meer uitslagen
za 15-02: 15e Zwaarste 10 van Zeeland Westenschouwen
za 08-02: Grevelingen cross Bruinisse (115)
za 08-02: Erpelkappersloop Axel (140)
zo 02-02: 29e Midwinter Halve Marathon Cadzand
za 01-02: 22e Rammekensloop Ritthem (267)
za 25-01: 6e Scheldesport cross Westdorpe (85)
za 18-01: Dow trimloop Terneuzen (88)
za 11-01: Berlaerloop Koewacht (105)
za 11-01: 48e Deltacross Westenschouwen (288)
zo 05-01: Scheidsrechtersloop Vlissingen (107)
za 04-01: 59e Wallenloop Goes (163)
za 04-01: Jeff Thuy Memorial Heikant (182)
 
Zoek tenminste met 3 tekens van wedstrijd, datum, plaats of atleet

52e Wallenloop

Goes, zaterdag 5 januari 2013 - Organisatie: AV'56
7.44 km
PltsNaam
Tijdkm/umin/kmm/secgap
1  Dieter VanstreelsDuffel AC22.38minMse   19.723  3:035.48-
2  Emmanuel LoverieAC Duffel23.49minM35   18.743  3:125.21+1:11
3  Tommy StaalAV'5624.06minMse   18.523  3:145.15+1:28
4  Wim NieuwkerkTHOR24.32minMse   18.196  3:185.05+1:54
5  Jente SamsonThe Yellow Armada24.43minMse   18.061  3:195.02+2:05
6  Arno NackaertsDuffel AC25.28minMse   17.529  3:254.87+2:50
7  Cesar BeiloVlissingen25.43minMse   17.358  3:274.82+3:05
8  Laurent van NieuwenhuijzeAV'5625.48minMse   17.302  3:284.81+3:10
9  Simon DenisDuffel AC26.09minMse   17.071  3:314.74+3:31
10  Willem de KorteDynamica26.20minMse   16.952  3:324.71+3:42
11  Marco MaertenDuffel AC26.26minM40   16.888  3:334.69+3:48
12  Peter van LimbergenAV'5626.30minM35   16.845  3:344.68+3:52
13  Wilko de VosAV'5626.44minM45   16.698  3:364.64+4:06
14  Toon BlommaertsDuffel AC26.55minMse   16.585  3:374.61+4:17
15  Robbert MeeuwseAV'5626.55minMse   16.585  3:374.61+4:17
16  Ad SluijterUtrecht26.56minMse   16.574  3:374.60+4:18
17  Leon JacobseDynamica27.07minMse   16.462  3:394.57+4:29
18  Peter BalkenendeAV'5627.23minM45   16.302  3:414.53+4:45
19  Geert CeuppensDuffel AC27.40minM35   16.135  3:434.48+5:02
20  Robin de VosAV'5627.41minMse   16.125  3:434.48+5:03
21  Marius BesuijenDynamica28.07minM50   15.877  3:474.41+5:29
22  JaapJan RitsemaDynamica28.16minM40   15.792  3:484.39+5:38
23  Huub van NoordenAV'5628.31minMse   15.654  3:504.35+5:53
24  Gert-Jan VerbruggeAV'5628.32minM45   15.645  3:504.35+5:54
25  Jan de WildeAV'5628.47minM55   15.509  3:524.31+6:09
26  Rico de PutterGoes28.54minMse   15.446  3:534.29+6:16
27  Johan KarelseHeinkenszand29.04minM35   15.358  3:544.27+6:26
28  Marianne de KokDynamica29.08minV40   15.323  3:554.26+6:30
29  Luc WaegemanVolharding29.32minM50   15.115  3:584.20+6:54
30  Leo de LeeuwAV'5629.34minM50   15.098  3:584.19+6:56
31  Wim WoutersAV'5629.39minM55   15.056  3:594.18+7:01
32  Gerben van der BliekGoes29.40minMse   15.047  3:594.18+7:02
33  Maurice JacobseDynamica29.43minMse   15.022  4:004.17+7:05
34  Pieter GoudOostdijk30.00minMse   14.880  4:024.13+7:22
35  John OverweelDynamica30.01minM60   14.872  4:024.13+7:23
36  Marc BlokHeinkenszand30.27minM35   14.660  4:064.07+7:49
37  Joop LasseurDelta Sport30.33minM65   14.612  4:064.06+7:55
38  Marco ToussaintAV'5630.35minM45   14.596  4:074.05+7:57
39  Remco KapteijnAV'5630.44minM40   14.525  4:084.03+8:06
40  Maurice SteketeeMiddelburg31.03minMse   14.377  4:103.99+8:25
41  Ron DellebekeDynamica31.10minM50   14.323  4:113.98+8:32
42  Jan-Joris JoossGoes31.14minM35   14.292  4:123.97+8:36
43  Annet van der LindeAV'5631.21minV40   14.239  4:133.96+8:43
44  Remie OpeneerGoes31.30minMse   14.171  4:143.94+8:52
45  Vincent ToutenhoofdWestkapelle31.31minM40   14.164  4:143.93+8:53
46  Geert VerlindenDuffel AC31.38minM50   14.112  4:153.92+9:00
47  Wim TempelaarDynamica31.42minM60   14.082  4:163.91+9:04
48  Jan JoosseKapelle-Biezelinge31.48minM45   14.038  4:163.90+9:10
49  Wim de JongeAV'5631.49minM60   14.030  4:173.90+9:11
50  Mieke ValkGoes32.10minVse   13.878  4:193.85+9:32
51  Eddy SmitDelta Sport32.25minM60   13.771  4:213.83+9:47
52  Berry SimonseAV'5632.26minM40   13.764  4:223.82+9:48
53  Harry ChristiaanseYerseke32.28minM50   13.749  4:223.82+9:50
54  Lennaert van de BergeKloetinge32.29minMse   13.742  4:223.82+9:51
55  Saskia GooleAV'5632.30minV40   13.735  4:223.82+9:52
56  Jan Willem MeeuwseKwadendamme32.36minM50   13.693  4:233.80+9:58
57  Seth DijkstraMiddelburg32.37minM40   13.686  4:233.80+9:59
58  Cor van den BergeGoes32.43minM45   13.644  4:243.79+10:05
59  Ruud FredriksAV'5632.46minM55   13.624  4:243.78+10:08
60  Peter NoordijkeGoes32.50minM45   13.596  4:253.78+10:12
61  Wim RooseGoes32.56minM60   13.555  4:263.77+10:18
62  Willem de LeeuwGoes33.03minM55   13.507  4:273.75+10:25
63  Marc BoschHeinkenszand33.08minM35   13.473  4:273.74+10:30
64  Idde LijnseGoes33.09minMse   13.466  4:273.74+10:31
65  Rudy de PauwACHL33.20minM65   13.392  4:293.72+10:42
66  Ruben van Luijks-Gravenpolder33.22minM35   13.379  4:293.72+10:44
67  Bas van den BrandBerghem33.31minM35   13.319  4:303.70+10:53
68  Gertjan BakkerAV'5633.47minM40   13.214  4:323.67+11:09
69  Edgar van Weeldens-Heer Arendskerke33.50minM40   13.194  4:333.67+11:12
70  Acronius KramerAV'5633.56minM60   13.155  4:343.65+11:18
71  Paul ArendsKloetinge33.59minM40   13.136  4:343.65+11:21
72  Herman AbbinkAV'5634.13minM55   13.046  4:363.62+11:35
73  Marcel Duvekots-Gravenpolder34.16minM45   13.027  4:363.62+11:38
74  Christine BalkenendeAV'5634.26minV45   12.964  4:383.60+11:48
75  Jaap OeleKapelle-Biezelinge34.32minM60   12.927  4:383.59+11:54
76  Wim HuurmanAV'5634.34minM50   12.914  4:393.59+11:56
77  Barry BremerGoes34.38minM40   12.889  4:393.58+12:00
78  Michael de JongKortgene34.46minMse   12.840  4:403.57+12:08
79  Tom BernaertsDuffel AC34.46minM35   12.840  4:403.57+12:08
80  Martin de RegtKapelle-Biezelinge34.50minM45   12.815  4:413.56+12:12
81  Rinus JoosseAV'5634.51minM65   12.809  4:413.56+12:13
82  Gertrud van NoordenAV'5634.54minVse   12.791  4:413.55+12:16
83  Cees LeijnseDynamica35.29minM65   12.581  4:463.49+12:51
84  Elize BacAV'5635.36minVse   12.539  4:473.48+12:58
85  Stephan Korts-Heer Hendrikskinderen35.40minM50   12.516  4:483.48+13:02
86  Esther van SluijsAV'5635.43minV35   12.498  4:483.47+13:05
87  Leen Nieuwenhuijzes-Heer Arendskerke35.52minM50   12.446  4:493.46+13:14
88  Kees van de LindeWemeldinge35.58minM50   12.411  4:503.45+13:20
89  Wilbert ElissenIJsselstein36.06minM45   12.366  4:513.43+13:28
90  AndrĂ© MinnaardKloetinge36.08minM45   12.354  4:513.43+13:30
91  Danny ArsOvezande36.14minM55   12.320  4:523.42+13:36
92  Marc-Jan MoerlandKrabbendijke36.54minMse   12.098  4:583.36+14:16
93  Arjan de VriesGoes36.59minM35   12.070  4:583.35+14:21
94  Daaf KoomanKapelle-Biezelinge37.04minM45   12.043  4:593.35+14:26
95  Johan Fredrikss-Heerenhoek37.04minMse   12.043  4:593.35+14:26
96  AndrĂ© KoningGoes37.11minM60   12.005  5:003.33+14:33
97  Leo Goedegebures-Heer Arendskerke37.12minM50   12.000  5:003.33+14:34
98  Henk SandeeKamperland37.17minM65   11.973  5:013.33+14:39
99  Ineke TempelaarDynamica37.24minV50   11.936  5:023.32+14:46
100  Marieke PadmoesGoes37.38minV35   11.862  5:033.29+15:00
101  Ingmar BermanGoes37.41minM40   11.846  5:043.29+15:03
102  John UitterhoeveGoes37.54minMse   11.778  5:063.27+15:16
103  Ellen UsmaniMiddelburg38.09minV45   11.701  5:083.25+15:31
104  Jack KarelseAV'5638.27minM40   11.610  5:103.22+15:49
105  Femke BijlsmaGoes38.37minVse   11.560  5:113.21+15:59
106  Piet VerwijsGoes38.54minM60   11.476  5:143.19+16:16
107  Wendy LeysLier38.59minV35   11.451  5:143.18+16:21
108  Nancy LeijsDuffel AC39.00minV40   11.446  5:153.18+16:22
109  Ad van LiereGoes39.11minM55   11.393  5:163.16+16:33
110  Janneke KoomanKapelle-Biezelinge39.15minV40   11.373  5:173.16+16:37
111  Mart-Jan DelzenneKrabbendijke39.45minM35   11.230  5:213.12+17:07
112  Philip LuitwielerGoes39.55minM60   11.183  5:223.11+17:17
113  Arthur StijnsOudelande40.14minM65   11.095  5:243.08+17:36
114  Hugo PoortvlietDynamica40.18minM65   11.077  5:253.08+17:40
115  Kees TraasKapelle-Biezelinge40.27minM65   11.036  5:263.07+17:49
116  Martin OosterveldGoes40.35minM50   11.000  5:273.06+17:57
117  Cindy LeijsDuffel AC40.38minV35   10.986  5:283.05+18:00
118  Jan RooseGoes41.05minM60   10.866  5:313.02+18:27
119  Joachim MeermanGoes41.10minMse   10.844  5:323.01+18:32
120  Arno van TrigtGoes41.16minM50   10.817  5:333.00+18:38
121  Jeanine VermueGoes41.19minV35   10.804  5:333.00+18:41
122  Ton GroenKapelle-Biezelinge41.33minM65   10.744  5:352.98+18:55
123  Alex de PutterGoes42.26minMse   10.520  5:422.92+19:48
124  Remko van LoonGoes42.40minMse   10.463  5:442.91+20:02
125  Chantal van de LindeWemeldinge42.45minV45   10.442  5:452.90+20:07
126  Bonnie OosterveldGoes42.46minVse   10.438  5:452.90+20:08
127  Tes van MindeWilhelminadorp42.47minVse   10.434  5:452.90+20:09
128  Robert-Jan GrootGoes42.50minMse   10.422  5:452.89+20:12
129  Peter CastelGoes42.53minM50   10.410  5:462.89+20:15
130  Anja de KortWemeldinge43.56minV40   10.161  5:542.82+21:18
131  Diana SinkeMiddelburg44.13minV50   10.096  5:572.80+21:35
132  Ellen StolkRotterdam44.14minVse   10.092  5:572.80+21:36
133  Hans BalGoes44.25minM60   10.050  5:582.79+21:47
134  Paul JoossGoes44.27minM65   10.043  5:582.79+21:49
135  Collin Koenengoes44.49minM40   9.961  6:012.77+22:11
Mannen: 112 (82.96%) => M35=12 - M40=13 - M45=12 - M50=15 - M55=7 - M60=12 - M65=10 - Mse=31
Vrouwen: 23 (17.04%) => V35=5 - V40=6 - V45=3 - V50=2 - Vse=7

Overzicht Top3, winnares en aantal deelnemers van aanwezige edities

JaarWinnaarTijd2eTijd 3eTijdWinnaresTijd#

7.44 km

2020Tim van de Velde23:01Maarten de Nijs23:49Nick Jacobs23:51Monica Sanderse27:26163
2019Tim van de Velde22:22Maarten de Nys23:52Niek den Exter24:18Marianne de Kok28:30158
2018Erwin Harmes23:26Patrick de Vos23:59Tim van der Broeke24:11Monique Verschuure27:25134
2017Tim van de Velde23:06Maarten de Nys23:41Erwin Adan23:55Monique Verschuure29:01115
2016Tim van de Velde23:42Maarten De Nys23:42Erwin Harmes23:45Annet van der Linde31:34105
2015Tim Pleijte22:47Erwin Harmes23:56Maarten De Nys24:14Monique Verschuure28:59155
2014Stein Van Es23:42Erwin Harmes23:46Mitchel van der Steen24:46Margriet Beekman-Rotte30:49137
2013Dieter Vanstreels22:38Emmanuel Loverie23:49Tommy Staal24:06Marianne de Kok29:08135
2012Maarten Mortelmans23:59Neal Bouterse24:27Willem de Korte27:06Paola van Gilst33:31106
2011Dieter Vanstreels23:29Roy Van Son23:35Jeroen Maas23:45Saskia Goole32:33102
2009Dieter Vanstreels23:39Bart Verschoren23:56Maarten Mortelmans24:07Astrid den Herder32:2783
2008Stein Van Es23:44Tim Pleijte23:49Bart Verschoren24:32Astrid den Herder32:0786
2007Bart Verschoren24:11Michel Schrier25:20Stein van Es25:36Leonie Ton31:3473
2006Bart Verschoren23:53Loic Helin24:43Ruud Woord25:07Marianne de Kok29:1797
2005Bart Verschoren23:29Ben Quintelier24:39Alex Storms24:45Andere afstand43
2004Bart Verschoren24:01Alex Storms24:13Ruud Woord24:17Andere afstand56
2003Bart Verschoren24:14Joost de Klerk24:30Alwin Vermeulen24:35Andere afstand21
2002Bart Verschoren23:33Ruben Scheurwater24:04Alex Storms24:21Andere afstand74
2001Armand van der Smissen22:58Jeroen Punt23:46Bart Verschoren24:11Andere afstand21
2000Jeroen Punt23:36Bart Verschoren24:22Alwin Vermeulen24:27Andere afstand3
1999Dennis Klasen23:33Koen Raymaekers23:53Niels Koole24:18Andere afstand3
1998John Vermeule23:12Rachid Ben Meziane23:31Raf Peeters24:02Andere afstand3
1997John Vermeule23:07Benny Ceulemans23:24Raf Peeters23:31Andere afstand3
1995Mauricio Gonzalez22:23Theo van den Abeele22:30Robin Punt22:41Andere afstand3
1994Robin Punt22:21Dennis Klasen22:38Erik Punt22:51Andere afstand31
1993Erik Punt22:34Hans van de Griendt22:59Robin Punt23:13Andere afstand3
1992Raf Wyns21:55Michel de Maat22:22Rudi Cock22:37Andere afstand3
1991Michel de Maat23:09Domien Brandsma23:20Hans van de Griendt23:26Andere afstand3
1990Geert Bouton23:00Leon van der Velden23:03Rian van den Broeke23:21Andere afstand3
1989Geert Bouton22:58Leon van der Velden23:04Marc Nevens23:22Andere afstand55
1988Jo Slagmolen22:54Leon van der Velden22:56Erik Punt23:16Andere afstand3
1987Leon van der Velden22:51Frank Kooman23:25Hans van Voorden23:26Andere afstand3
1986Dave Cameron22:43Frank Kooman23:23Leon van der Velden23:27Andere afstand3
1985Johan de Vlieger24:04Albert Karstanje24:09Frans Krijnsen24:11Andere afstand36
1984Luc Wijns22:18Thomas Langhammer22:40Aart Stigter23:06Andere afstand3
1983Luc Wijns22:24Kim Reijnierse22:55Huib Dalebout23:17Andere afstand3
1982Marc Nevens23:24John Vermeule23:42Piet Vonck23:47Andere afstand3
1981Marc Nevens23:00Jan de Bart23:26Kim Reijnierse23:34Andere afstand3
1980Marc Nevens22:51Dirk Geens23:27R. Blocks23:45Andere afstand3
1979Harry Patist23:16Dirk Geens23:34Johan Antheunisse23:42Andere afstand3
1978Marc Smet22:01Piet Vonck22:35Marc Nevens22:42Andere afstand3
1977Marc Smet22:42Marc Nevens23:08A. Vidas24:05Andere afstand3
1976Marc Nevens22:34Marien van Prooyen23:32Andre Boonen23:47Andere afstand3
1975Marien van Prooyen23:33K. van der Heul23:41Johan Antheunisse23:49Andere afstand23
1974Piet Vonck22:45J. Brands24:01J. van Eekelen24:22Andere afstand16
1973Piet Vonck22:54Kees van Dalen23:21H. van Kasteren23:33Andere afstand29

Snelheid en tempo zijn berekend op de vermelde afstand. Bij een onjuiste afstand wijken deze uiteraard af!

Fouten melden via info@atletiekzeeland.nl Categorie fout? Mail dan geboortedatum. (geldt alleen voor Zeeuwen)

De server had 0.366 seconden nodig om deze lijst met 135 prestaties samen te stellen.

Terug naar boven


 
Laatste reactie:
Jan Roose: Voor De 9e Keer Kapellecross..
Recente Zeeuwse prestaties meer prestaties
15-02: NK indoor A/B-junioren Apeldoorn (2)
3000 m Bezuayehu Petersen (PR)9.01.49  JoA
3000 m Bereket Petersen (PR 8.53.28)9.06.46  JoA
26-01: Indoormeeting Gent (2)
19-01: Kievitloop Bergen op Zoom (11)
19-01: Marathon Funchal (3)
12-01: 48e Halve van Egmond  (21)
22-12: Kerstloop Barendrecht (6)
Atletiek Zeeland © 2020